sensor_id;sensor_type;location;lat;lon;timestamp;P1;durP1;ratioP1;P2;durP2;ratioP2
75639;SDS011;64233;51.486;6.332;2023-05-07T00:00:18;11.63;;;7.82;;
75639;SDS011;64233;51.486;6.332;2023-05-07T00:02:47;8.43;;;7.47;;
75639;SDS011;64233;51.486;6.332;2023-05-07T00:05:12;14.70;;;8.07;;
75639;SDS011;64233;51.486;6.332;2023-05-07T00:07:38;11.23;;;8.25;;
75639;SDS011;64233;51.486;6.332;2023-05-07T00:10:03;12.82;;;8.43;;
75639;SDS011;64233;51.486;6.332;2023-05-07T00:12:31;11.63;;;8.85;;
75639;SDS011;64233;51.486;6.332;2023-05-07T00:14:58;12.07;;;8.73;;
75639;SDS011;64233;51.486;6.332;2023-05-07T00:17:23;11.38;;;8.55;;
75639;SDS011;64233;51.486;6.332;2023-05-07T00:19:49;12.77;;;8.50;;
75639;SDS011;64233;51.486;6.332;2023-05-07T00:22:14;12.07;;;8.73;;
75639;SDS011;64233;51.486;6.332;2023-05-07T00:24:40;11.80;;;8.65;;
75639;SDS011;64233;51.486;6.332;2023-05-07T00:27:05;10.25;;;8.65;;
75639;SDS011;64233;51.486;6.332;2023-05-07T00:29:30;9.40;;;7.53;;
75639;SDS011;64233;51.486;6.332;2023-05-07T00:31:56;13.38;;;10.27;;
75639;SDS011;64233;51.486;6.332;2023-05-07T00:34:21;12.52;;;10.15;;
75639;SDS011;64233;51.486;6.332;2023-05-07T00:36:47;17.08;;;10.30;;
75639;SDS011;64233;51.486;6.332;2023-05-07T00:39:12;14.68;;;10.02;;
75639;SDS011;64233;51.486;6.332;2023-05-07T00:41:37;13.90;;;9.85;;
75639;SDS011;64233;51.486;6.332;2023-05-07T00:44:03;14.55;;;11.23;;
75639;SDS011;64233;51.486;6.332;2023-05-07T00:46:28;19.38;;;12.32;;
75639;SDS011;64233;51.486;6.332;2023-05-07T00:48:55;20.27;;;11.93;;
75639;SDS011;64233;51.486;6.332;2023-05-07T00:51:21;18.45;;;11.55;;
75639;SDS011;64233;51.486;6.332;2023-05-07T00:53:47;18.10;;;12.48;;
75639;SDS011;64233;51.486;6.332;2023-05-07T00:56:12;24.10;;;12.18;;
75639;SDS011;64233;51.486;6.332;2023-05-07T00:58:38;20.33;;;12.70;;
75639;SDS011;64233;51.486;6.332;2023-05-07T01:01:03;19.13;;;13.40;;
75639;SDS011;64233;51.486;6.332;2023-05-07T01:03:29;18.00;;;11.98;;
75639;SDS011;64233;51.486;6.332;2023-05-07T01:05:54;21.88;;;12.57;;
75639;SDS011;64233;51.486;6.332;2023-05-07T01:08:22;20.83;;;12.43;;
75639;SDS011;64233;51.486;6.332;2023-05-07T01:10:49;19.08;;;11.52;;
75639;SDS011;64233;51.486;6.332;2023-05-07T01:13:17;19.17;;;11.98;;
75639;SDS011;64233;51.486;6.332;2023-05-07T01:15:44;16.40;;;11.68;;
75639;SDS011;64233;51.486;6.332;2023-05-07T01:18:10;19.73;;;12.95;;
75639;SDS011;64233;51.486;6.332;2023-05-07T01:20:35;17.17;;;12.30;;
75639;SDS011;64233;51.486;6.332;2023-05-07T01:23:01;17.80;;;12.57;;
75639;SDS011;64233;51.486;6.332;2023-05-07T01:25:28;21.38;;;13.32;;
75639;SDS011;64233;51.486;6.332;2023-05-07T01:27:53;20.80;;;12.75;;
75639;SDS011;64233;51.486;6.332;2023-05-07T01:30:18;18.58;;;12.70;;
75639;SDS011;64233;51.486;6.332;2023-05-07T01:32:51;18.20;;;12.68;;
75639;SDS011;64233;51.486;6.332;2023-05-07T01:35:24;22.33;;;13.83;;
75639;SDS011;64233;51.486;6.332;2023-05-07T01:37:53;20.15;;;12.68;;
75639;SDS011;64233;51.486;6.332;2023-05-07T01:40:19;19.70;;;12.90;;
75639;SDS011;64233;51.486;6.332;2023-05-07T01:42:45;17.35;;;13.10;;
75639;SDS011;64233;51.486;6.332;2023-05-07T01:45:11;19.30;;;13.60;;
75639;SDS011;64233;51.486;6.332;2023-05-07T01:47:37;18.85;;;12.65;;
75639;SDS011;64233;51.486;6.332;2023-05-07T01:50:03;20.73;;;13.00;;
75639;SDS011;64233;51.486;6.332;2023-05-07T01:52:30;18.50;;;11.80;;
75639;SDS011;64233;51.486;6.332;2023-05-07T01:54:56;16.67;;;12.65;;
75639;SDS011;64233;51.486;6.332;2023-05-07T01:57:21;22.77;;;13.27;;
75639;SDS011;64233;51.486;6.332;2023-05-07T01:59:46;18.93;;;13.00;;
75639;SDS011;64233;51.486;6.332;2023-05-07T02:02:11;17.98;;;12.13;;
75639;SDS011;64233;51.486;6.332;2023-05-07T02:04:37;20.00;;;12.65;;
75639;SDS011;64233;51.486;6.332;2023-05-07T02:07:02;18.67;;;13.17;;
75639;SDS011;64233;51.486;6.332;2023-05-07T02:09:27;21.45;;;14.10;;
75639;SDS011;64233;51.486;6.332;2023-05-07T02:11:53;23.17;;;13.20;;
75639;SDS011;64233;51.486;6.332;2023-05-07T02:14:18;18.73;;;13.63;;
75639;SDS011;64233;51.486;6.332;2023-05-07T02:16:45;22.42;;;13.77;;
75639;SDS011;64233;51.486;6.332;2023-05-07T02:19:10;20.98;;;13.77;;
75639;SDS011;64233;51.486;6.332;2023-05-07T02:21:35;25.35;;;14.27;;
75639;SDS011;64233;51.486;6.332;2023-05-07T02:24:00;23.38;;;14.27;;
75639;SDS011;64233;51.486;6.332;2023-05-07T02:26:26;24.67;;;14.82;;
75639;SDS011;64233;51.486;6.332;2023-05-07T02:28:51;24.50;;;16.83;;
75639;SDS011;64233;51.486;6.332;2023-05-07T02:31:16;21.13;;;14.18;;
75639;SDS011;64233;51.486;6.332;2023-05-07T02:33:42;21.33;;;14.57;;
75639;SDS011;64233;51.486;6.332;2023-05-07T02:36:08;19.80;;;13.80;;
75639;SDS011;64233;51.486;6.332;2023-05-07T02:38:34;21.02;;;13.63;;
75639;SDS011;64233;51.486;6.332;2023-05-07T02:41:00;19.58;;;13.18;;
75639;SDS011;64233;51.486;6.332;2023-05-07T02:43:25;22.80;;;13.85;;
75639;SDS011;64233;51.486;6.332;2023-05-07T02:45:59;24.13;;;15.73;;
75639;SDS011;64233;51.486;6.332;2023-05-07T02:48:32;21.13;;;14.65;;
75639;SDS011;64233;51.486;6.332;2023-05-07T02:50:58;24.65;;;15.27;;
75639;SDS011;64233;51.486;6.332;2023-05-07T02:53:23;19.50;;;14.25;;
75639;SDS011;64233;51.486;6.332;2023-05-07T02:55:51;22.35;;;15.25;;
75639;SDS011;64233;51.486;6.332;2023-05-07T02:58:17;26.23;;;16.15;;
75639;SDS011;64233;51.486;6.332;2023-05-07T03:00:42;21.75;;;14.93;;
75639;SDS011;64233;51.486;6.332;2023-05-07T03:03:07;25.13;;;16.20;;
75639;SDS011;64233;51.486;6.332;2023-05-07T03:05:32;20.77;;;14.30;;
75639;SDS011;64233;51.486;6.332;2023-05-07T03:07:58;22.60;;;14.40;;
75639;SDS011;64233;51.486;6.332;2023-05-07T03:10:23;23.77;;;15.75;;
75639;SDS011;64233;51.486;6.332;2023-05-07T03:12:48;20.13;;;14.68;;
75639;SDS011;64233;51.486;6.332;2023-05-07T03:15:14;22.98;;;15.88;;
75639;SDS011;64233;51.486;6.332;2023-05-07T03:17:39;23.52;;;16.05;;
75639;SDS011;64233;51.486;6.332;2023-05-07T03:20:05;23.77;;;15.18;;
75639;SDS011;64233;51.486;6.332;2023-05-07T03:22:31;19.65;;;14.63;;
75639;SDS011;64233;51.486;6.332;2023-05-07T03:24:56;21.80;;;15.15;;
75639;SDS011;64233;51.486;6.332;2023-05-07T03:27:21;22.35;;;14.52;;
75639;SDS011;64233;51.486;6.332;2023-05-07T03:29:47;22.58;;;14.98;;
75639;SDS011;64233;51.486;6.332;2023-05-07T03:32:12;24.55;;;16.05;;
75639;SDS011;64233;51.486;6.332;2023-05-07T03:34:38;23.30;;;15.45;;
75639;SDS011;64233;51.486;6.332;2023-05-07T03:37:03;21.48;;;14.77;;
75639;SDS011;64233;51.486;6.332;2023-05-07T03:39:28;22.20;;;14.85;;
75639;SDS011;64233;51.486;6.332;2023-05-07T03:41:53;21.97;;;14.53;;
75639;SDS011;64233;51.486;6.332;2023-05-07T03:44:19;26.63;;;16.30;;
75639;SDS011;64233;51.486;6.332;2023-05-07T03:46:44;21.42;;;13.85;;
75639;SDS011;64233;51.486;6.332;2023-05-07T03:49:10;21.38;;;15.20;;
75639;SDS011;64233;51.486;6.332;2023-05-07T03:51:35;18.50;;;13.02;;
75639;SDS011;64233;51.486;6.332;2023-05-07T03:54:01;22.75;;;14.70;;
75639;SDS011;64233;51.486;6.332;2023-05-07T03:56:26;21.55;;;15.07;;
75639;SDS011;64233;51.486;6.332;2023-05-07T03:58:52;21.63;;;15.23;;
75639;SDS011;64233;51.486;6.332;2023-05-07T04:01:18;24.73;;;15.50;;
75639;SDS011;64233;51.486;6.332;2023-05-07T04:03:43;20.63;;;14.43;;
75639;SDS011;64233;51.486;6.332;2023-05-07T04:06:08;22.50;;;15.07;;
75639;SDS011;64233;51.486;6.332;2023-05-07T04:08:34;23.27;;;13.88;;
75639;SDS011;64233;51.486;6.332;2023-05-07T04:10:59;23.27;;;14.35;;
75639;SDS011;64233;51.486;6.332;2023-05-07T04:13:24;20.85;;;14.27;;
75639;SDS011;64233;51.486;6.332;2023-05-07T04:15:50;22.85;;;14.50;;
75639;SDS011;64233;51.486;6.332;2023-05-07T04:18:16;25.80;;;15.18;;
75639;SDS011;64233;51.486;6.332;2023-05-07T04:20:41;20.00;;;15.27;;
75639;SDS011;64233;51.486;6.332;2023-05-07T04:23:07;22.23;;;15.00;;
75639;SDS011;64233;51.486;6.332;2023-05-07T04:25:32;22.92;;;14.95;;
75639;SDS011;64233;51.486;6.332;2023-05-07T04:27:58;23.02;;;15.32;;
75639;SDS011;64233;51.486;6.332;2023-05-07T04:30:23;21.52;;;14.40;;
75639;SDS011;64233;51.486;6.332;2023-05-07T04:32:48;24.90;;;14.93;;
75639;SDS011;64233;51.486;6.332;2023-05-07T04:35:14;20.58;;;14.48;;
75639;SDS011;64233;51.486;6.332;2023-05-07T04:37:39;19.40;;;14.20;;
75639;SDS011;64233;51.486;6.332;2023-05-07T04:40:05;26.45;;;15.98;;
75639;SDS011;64233;51.486;6.332;2023-05-07T04:42:31;28.30;;;15.57;;
75639;SDS011;64233;51.486;6.332;2023-05-07T04:44:56;21.75;;;14.65;;
75639;SDS011;64233;51.486;6.332;2023-05-07T04:47:21;24.10;;;14.50;;
75639;SDS011;64233;51.486;6.332;2023-05-07T04:49:47;20.25;;;14.02;;
75639;SDS011;64233;51.486;6.332;2023-05-07T04:52:12;20.35;;;13.90;;
75639;SDS011;64233;51.486;6.332;2023-05-07T04:54:37;24.27;;;14.85;;
75639;SDS011;64233;51.486;6.332;2023-05-07T04:57:05;20.25;;;12.20;;
75639;SDS011;64233;51.486;6.332;2023-05-07T04:59:31;21.10;;;14.73;;
75639;SDS011;64233;51.486;6.332;2023-05-07T05:01:57;24.35;;;15.30;;
75639;SDS011;64233;51.486;6.332;2023-05-07T05:04:22;20.45;;;14.07;;
75639;SDS011;64233;51.486;6.332;2023-05-07T05:06:48;21.50;;;14.02;;
75639;SDS011;64233;51.486;6.332;2023-05-07T05:09:13;24.98;;;16.83;;
75639;SDS011;64233;51.486;6.332;2023-05-07T05:11:39;21.55;;;15.27;;
75639;SDS011;64233;51.486;6.332;2023-05-07T05:14:04;21.50;;;13.95;;
75639;SDS011;64233;51.486;6.332;2023-05-07T05:16:30;23.02;;;13.88;;
75639;SDS011;64233;51.486;6.332;2023-05-07T05:18:55;25.02;;;14.75;;
75639;SDS011;64233;51.486;6.332;2023-05-07T05:21:20;21.73;;;13.45;;
75639;SDS011;64233;51.486;6.332;2023-05-07T05:23:46;20.23;;;12.55;;
75639;SDS011;64233;51.486;6.332;2023-05-07T05:26:11;28.95;;;14.38;;
75639;SDS011;64233;51.486;6.332;2023-05-07T05:28:37;22.08;;;12.70;;
75639;SDS011;64233;51.486;6.332;2023-05-07T05:31:02;20.40;;;14.10;;
75639;SDS011;64233;51.486;6.332;2023-05-07T05:33:27;17.98;;;13.20;;
75639;SDS011;64233;51.486;6.332;2023-05-07T05:35:55;20.33;;;13.35;;
75639;SDS011;64233;51.486;6.332;2023-05-07T05:38:21;21.08;;;13.70;;
75639;SDS011;64233;51.486;6.332;2023-05-07T05:40:46;20.92;;;13.82;;
75639;SDS011;64233;51.486;6.332;2023-05-07T05:43:12;19.67;;;12.80;;
75639;SDS011;64233;51.486;6.332;2023-05-07T05:45:38;20.33;;;12.68;;
75639;SDS011;64233;51.486;6.332;2023-05-07T05:48:03;19.98;;;13.77;;
75639;SDS011;64233;51.486;6.332;2023-05-07T05:50:28;23.00;;;13.73;;
75639;SDS011;64233;51.486;6.332;2023-05-07T05:52:54;21.75;;;12.85;;
75639;SDS011;64233;51.486;6.332;2023-05-07T05:55:19;18.77;;;11.82;;
75639;SDS011;64233;51.486;6.332;2023-05-07T05:57:45;17.17;;;11.82;;
75639;SDS011;64233;51.486;6.332;2023-05-07T06:00:11;17.50;;;11.15;;
75639;SDS011;64233;51.486;6.332;2023-05-07T06:02:36;16.65;;;10.65;;
75639;SDS011;64233;51.486;6.332;2023-05-07T06:05:02;12.60;;;8.10;;
75639;SDS011;64233;51.486;6.332;2023-05-07T06:07:28;10.60;;;7.65;;
75639;SDS011;64233;51.486;6.332;2023-05-07T06:09:53;14.15;;;7.93;;
75639;SDS011;64233;51.486;6.332;2023-05-07T06:12:18;11.48;;;7.82;;
75639;SDS011;64233;51.486;6.332;2023-05-07T06:14:44;17.08;;;7.80;;
75639;SDS011;64233;51.486;6.332;2023-05-07T06:17:09;15.98;;;8.68;;
75639;SDS011;64233;51.486;6.332;2023-05-07T06:19:34;11.20;;;8.45;;
75639;SDS011;64233;51.486;6.332;2023-05-07T06:22:00;11.57;;;8.18;;
75639;SDS011;64233;51.486;6.332;2023-05-07T06:24:26;10.38;;;7.75;;
75639;SDS011;64233;51.486;6.332;2023-05-07T06:26:52;10.20;;;7.03;;
75639;SDS011;64233;51.486;6.332;2023-05-07T06:29:17;10.77;;;7.80;;
75639;SDS011;64233;51.486;6.332;2023-05-07T06:31:43;11.77;;;7.60;;
75639;SDS011;64233;51.486;6.332;2023-05-07T06:34:08;10.30;;;7.70;;
75639;SDS011;64233;51.486;6.332;2023-05-07T06:36:33;13.23;;;8.07;;
75639;SDS011;64233;51.486;6.332;2023-05-07T06:38:59;8.75;;;6.97;;
75639;SDS011;64233;51.486;6.332;2023-05-07T06:41:24;12.18;;;7.70;;
75639;SDS011;64233;51.486;6.332;2023-05-07T06:43:50;10.20;;;7.43;;
75639;SDS011;64233;51.486;6.332;2023-05-07T06:46:16;12.23;;;7.00;;
75639;SDS011;64233;51.486;6.332;2023-05-07T06:48:41;14.90;;;7.65;;
75639;SDS011;64233;51.486;6.332;2023-05-07T06:51:06;12.23;;;8.00;;
75639;SDS011;64233;51.486;6.332;2023-05-07T06:53:32;11.95;;;7.57;;
75639;SDS011;64233;51.486;6.332;2023-05-07T06:55:57;10.80;;;7.70;;
75639;SDS011;64233;51.486;6.332;2023-05-07T06:58:23;13.23;;;8.30;;
75639;SDS011;64233;51.486;6.332;2023-05-07T07:00:48;11.93;;;8.07;;
75639;SDS011;64233;51.486;6.332;2023-05-07T07:03:13;11.50;;;8.45;;
75639;SDS011;64233;51.486;6.332;2023-05-07T07:05:40;13.52;;;8.13;;
75639;SDS011;64233;51.486;6.332;2023-05-07T07:08:06;9.27;;;6.93;;
75639;SDS011;64233;51.486;6.332;2023-05-07T07:10:31;10.07;;;6.70;;
75639;SDS011;64233;51.486;6.332;2023-05-07T07:12:57;12.80;;;8.07;;
75639;SDS011;64233;51.486;6.332;2023-05-07T07:15:22;9.63;;;6.85;;
75639;SDS011;64233;51.486;6.332;2023-05-07T07:17:49;10.85;;;7.03;;
75639;SDS011;64233;51.486;6.332;2023-05-07T07:20:15;12.57;;;7.65;;
75639;SDS011;64233;51.486;6.332;2023-05-07T07:22:41;12.18;;;7.45;;
75639;SDS011;64233;51.486;6.332;2023-05-07T07:25:06;12.30;;;6.97;;
75639;SDS011;64233;51.486;6.332;2023-05-07T07:27:32;9.80;;;7.18;;
75639;SDS011;64233;51.486;6.332;2023-05-07T07:29:57;11.43;;;6.70;;
75639;SDS011;64233;51.486;6.332;2023-05-07T07:32:22;10.90;;;7.10;;
75639;SDS011;64233;51.486;6.332;2023-05-07T07:34:47;8.35;;;6.47;;
75639;SDS011;64233;51.486;6.332;2023-05-07T07:37:13;9.65;;;6.40;;
75639;SDS011;64233;51.486;6.332;2023-05-07T07:39:38;9.90;;;6.60;;
75639;SDS011;64233;51.486;6.332;2023-05-07T07:42:03;8.35;;;6.43;;
75639;SDS011;64233;51.486;6.332;2023-05-07T07:44:28;9.93;;;6.82;;
75639;SDS011;64233;51.486;6.332;2023-05-07T07:46:54;10.50;;;6.32;;
75639;SDS011;64233;51.486;6.332;2023-05-07T07:49:19;13.30;;;6.97;;
75639;SDS011;64233;51.486;6.332;2023-05-07T07:51:45;9.50;;;6.68;;
75639;SDS011;64233;51.486;6.332;2023-05-07T07:54:10;10.95;;;6.57;;
75639;SDS011;64233;51.486;6.332;2023-05-07T07:56:35;14.13;;;5.70;;
75639;SDS011;64233;51.486;6.332;2023-05-07T07:59:01;10.27;;;5.90;;
75639;SDS011;64233;51.486;6.332;2023-05-07T08:01:27;10.18;;;6.78;;
75639;SDS011;64233;51.486;6.332;2023-05-07T08:03:54;7.72;;;6.10;;
75639;SDS011;64233;51.486;6.332;2023-05-07T08:06:20;10.07;;;6.25;;
75639;SDS011;64233;51.486;6.332;2023-05-07T08:08:45;10.68;;;5.85;;
75639;SDS011;64233;51.486;6.332;2023-05-07T08:11:10;8.07;;;6.05;;
75639;SDS011;64233;51.486;6.332;2023-05-07T08:13:36;8.02;;;5.50;;
75639;SDS011;64233;51.486;6.332;2023-05-07T08:16:02;6.82;;;4.97;;
75639;SDS011;64233;51.486;6.332;2023-05-07T08:18:28;8.23;;;5.65;;
75639;SDS011;64233;51.486;6.332;2023-05-07T08:20:54;7.97;;;4.72;;
75639;SDS011;64233;51.486;6.332;2023-05-07T08:23:19;6.63;;;4.22;;
75639;SDS011;64233;51.486;6.332;2023-05-07T08:25:45;6.85;;;4.22;;
75639;SDS011;64233;51.486;6.332;2023-05-07T08:28:10;8.77;;;5.18;;
75639;SDS011;64233;51.486;6.332;2023-05-07T08:30:36;10.60;;;5.68;;
75639;SDS011;64233;51.486;6.332;2023-05-07T08:33:01;7.95;;;5.57;;
75639;SDS011;64233;51.486;6.332;2023-05-07T08:35:26;8.05;;;4.72;;
75639;SDS011;64233;51.486;6.332;2023-05-07T08:37:52;10.90;;;6.03;;
75639;SDS011;64233;51.486;6.332;2023-05-07T08:40:18;7.53;;;5.63;;
75639;SDS011;64233;51.486;6.332;2023-05-07T08:42:43;9.65;;;5.30;;
75639;SDS011;64233;51.486;6.332;2023-05-07T08:45:09;6.43;;;4.68;;
75639;SDS011;64233;51.486;6.332;2023-05-07T08:47:40;7.97;;;5.90;;
75639;SDS011;64233;51.486;6.332;2023-05-07T08:50:09;11.73;;;5.30;;
75639;SDS011;64233;51.486;6.332;2023-05-07T08:52:34;7.80;;;4.97;;
75639;SDS011;64233;51.486;6.332;2023-05-07T08:55:01;11.43;;;5.40;;
75639;SDS011;64233;51.486;6.332;2023-05-07T08:57:27;6.97;;;5.53;;
75639;SDS011;64233;51.486;6.332;2023-05-07T08:59:53;9.90;;;5.28;;
75639;SDS011;64233;51.486;6.332;2023-05-07T09:02:18;7.80;;;5.22;;
75639;SDS011;64233;51.486;6.332;2023-05-07T09:04:43;10.25;;;5.75;;
75639;SDS011;64233;51.486;6.332;2023-05-07T09:07:09;7.78;;;5.68;;
75639;SDS011;64233;51.486;6.332;2023-05-07T09:09:34;8.77;;;5.60;;
75639;SDS011;64233;51.486;6.332;2023-05-07T09:11:59;7.53;;;4.65;;
75639;SDS011;64233;51.486;6.332;2023-05-07T09:14:25;7.60;;;5.63;;
75639;SDS011;64233;51.486;6.332;2023-05-07T09:16:53;8.45;;;5.18;;
75639;SDS011;64233;51.486;6.332;2023-05-07T09:19:22;7.95;;;5.43;;
75639;SDS011;64233;51.486;6.332;2023-05-07T09:21:49;9.63;;;5.60;;
75639;SDS011;64233;51.486;6.332;2023-05-07T09:24:15;9.70;;;4.97;;
75639;SDS011;64233;51.486;6.332;2023-05-07T09:26:41;8.32;;;5.63;;
75639;SDS011;64233;51.486;6.332;2023-05-07T09:29:07;10.35;;;4.95;;
75639;SDS011;64233;51.486;6.332;2023-05-07T09:31:36;11.68;;;5.47;;
75639;SDS011;64233;51.486;6.332;2023-05-07T09:34:02;7.35;;;4.82;;
75639;SDS011;64233;51.486;6.332;2023-05-07T09:36:29;7.40;;;4.60;;
75639;SDS011;64233;51.486;6.332;2023-05-07T09:38:58;9.45;;;5.75;;
75639;SDS011;64233;51.486;6.332;2023-05-07T09:41:24;10.63;;;5.70;;
75639;SDS011;64233;51.486;6.332;2023-05-07T09:43:53;8.85;;;4.20;;
75639;SDS011;64233;51.486;6.332;2023-05-07T09:46:19;7.65;;;5.28;;
75639;SDS011;64233;51.486;6.332;2023-05-07T09:48:59;11.23;;;5.40;;
75639;SDS011;64233;51.486;6.332;2023-05-07T09:51:31;8.65;;;5.28;;
75639;SDS011;64233;51.486;6.332;2023-05-07T09:54:03;5.70;;;4.47;;
75639;SDS011;64233;51.486;6.332;2023-05-07T09:56:29;7.25;;;4.50;;
75639;SDS011;64233;51.486;6.332;2023-05-07T09:58:56;4.93;;;3.58;;
75639;SDS011;64233;51.486;6.332;2023-05-07T10:01:25;4.40;;;3.58;;
75639;SDS011;64233;51.486;6.332;2023-05-07T10:03:52;5.43;;;4.20;;
75639;SDS011;64233;51.486;6.332;2023-05-07T10:06:19;4.82;;;3.35;;
75639;SDS011;64233;51.486;6.332;2023-05-07T10:08:45;6.40;;;4.05;;
75639;SDS011;64233;51.486;6.332;2023-05-07T10:11:10;6.30;;;3.95;;
75639;SDS011;64233;51.486;6.332;2023-05-07T10:13:36;7.22;;;4.32;;
75639;SDS011;64233;51.486;6.332;2023-05-07T10:16:03;5.28;;;4.03;;
75639;SDS011;64233;51.486;6.332;2023-05-07T10:18:30;6.85;;;4.32;;
75639;SDS011;64233;51.486;6.332;2023-05-07T10:21:01;12.95;;;4.57;;
75639;SDS011;64233;51.486;6.332;2023-05-07T10:23:40;7.70;;;4.38;;
75639;SDS011;64233;51.486;6.332;2023-05-07T10:26:09;6.82;;;3.67;;
75639;SDS011;64233;51.486;6.332;2023-05-07T10:28:39;5.43;;;3.50;;
75639;SDS011;64233;51.486;6.332;2023-05-07T10:33:52;9.70;;;4.57;;
75639;SDS011;64233;51.486;6.332;2023-05-07T10:36:19;7.45;;;4.00;;
75639;SDS011;64233;51.486;6.332;2023-05-07T10:38:46;4.82;;;3.53;;
75639;SDS011;64233;51.486;6.332;2023-05-07T10:41:12;5.28;;;3.95;;
75639;SDS011;64233;51.486;6.332;2023-05-07T10:43:41;5.07;;;3.85;;
75639;SDS011;64233;51.486;6.332;2023-05-07T10:51:31;6.50;;;3.60;;
75639;SDS011;64233;51.486;6.332;2023-05-07T10:56:39;7.18;;;3.78;;
75639;SDS011;64233;51.486;6.332;2023-05-07T11:01:55;4.72;;;3.47;;
75639;SDS011;64233;51.486;6.332;2023-05-07T11:04:25;6.18;;;3.35;;
75639;SDS011;64233;51.486;6.332;2023-05-07T11:15:00;5.35;;;3.00;;
75639;SDS011;64233;51.486;6.332;2023-05-07T11:17:29;3.47;;;2.50;;
75639;SDS011;64233;51.486;6.332;2023-05-07T11:19:56;6.00;;;3.10;;
75639;SDS011;64233;51.486;6.332;2023-05-07T11:25:01;4.75;;;2.80;;
75639;SDS011;64233;51.486;6.332;2023-05-07T11:27:27;2.50;;;1.73;;
75639;SDS011;64233;51.486;6.332;2023-05-07T11:29:54;15.02;;;2.97;;
75639;SDS011;64233;51.486;6.332;2023-05-07T11:32:29;4.28;;;2.38;;
75639;SDS011;64233;51.486;6.332;2023-05-07T11:34:56;4.55;;;2.63;;
75639;SDS011;64233;51.486;6.332;2023-05-07T11:37:24;3.45;;;2.42;;
75639;SDS011;64233;51.486;6.332;2023-05-07T11:39:51;4.80;;;2.72;;
75639;SDS011;64233;51.486;6.332;2023-05-07T11:42:28;4.88;;;2.78;;
75639;SDS011;64233;51.486;6.332;2023-05-07T11:44:55;4.97;;;3.13;;
75639;SDS011;64233;51.486;6.332;2023-05-07T11:47:20;7.00;;;3.72;;
75639;SDS011;64233;51.486;6.332;2023-05-07T11:49:49;7.10;;;3.85;;
75639;SDS011;64233;51.486;6.332;2023-05-07T11:52:16;6.28;;;3.38;;
75639;SDS011;64233;51.486;6.332;2023-05-07T11:54:49;6.82;;;4.32;;
75639;SDS011;64233;51.486;6.332;2023-05-07T11:57:15;6.50;;;4.38;;
75639;SDS011;64233;51.486;6.332;2023-05-07T11:59:40;7.45;;;3.72;;
75639;SDS011;64233;51.486;6.332;2023-05-07T12:02:06;5.60;;;3.63;;
75639;SDS011;64233;51.486;6.332;2023-05-07T12:04:32;5.78;;;3.47;;
75639;SDS011;64233;51.486;6.332;2023-05-07T12:06:57;5.67;;;3.60;;
75639;SDS011;64233;51.486;6.332;2023-05-07T12:09:23;5.60;;;3.15;;
75639;SDS011;64233;51.486;6.332;2023-05-07T12:11:48;4.40;;;3.80;;
75639;SDS011;64233;51.486;6.332;2023-05-07T12:14:13;6.75;;;3.50;;
75639;SDS011;64233;51.486;6.332;2023-05-07T12:16:41;7.22;;;3.25;;
75639;SDS011;64233;51.486;6.332;2023-05-07T12:19:06;4.60;;;3.35;;
75639;SDS011;64233;51.486;6.332;2023-05-07T12:21:33;9.80;;;4.07;;
75639;SDS011;64233;51.486;6.332;2023-05-07T12:24:00;7.07;;;3.60;;
75639;SDS011;64233;51.486;6.332;2023-05-07T12:26:26;8.15;;;4.15;;
75639;SDS011;64233;51.486;6.332;2023-05-07T12:28:51;7.00;;;3.30;;
75639;SDS011;64233;51.486;6.332;2023-05-07T12:31:16;9.20;;;3.90;;
75639;SDS011;64233;51.486;6.332;2023-05-07T12:33:42;6.63;;;3.95;;
75639;SDS011;64233;51.486;6.332;2023-05-07T12:36:07;5.15;;;3.50;;
75639;SDS011;64233;51.486;6.332;2023-05-07T12:38:36;6.05;;;3.90;;
75639;SDS011;64233;51.486;6.332;2023-05-07T12:41:03;4.63;;;3.10;;
75639;SDS011;64233;51.486;6.332;2023-05-07T12:43:29;5.78;;;3.72;;
75639;SDS011;64233;51.486;6.332;2023-05-07T12:45:55;9.27;;;3.67;;
75639;SDS011;64233;51.486;6.332;2023-05-07T12:48:31;6.07;;;3.20;;
75639;SDS011;64233;51.486;6.332;2023-05-07T12:50:57;5.05;;;3.85;;
75639;SDS011;64233;51.486;6.332;2023-05-07T12:53:24;5.22;;;3.67;;
75639;SDS011;64233;51.486;6.332;2023-05-07T12:55:52;4.70;;;3.28;;
75639;SDS011;64233;51.486;6.332;2023-05-07T12:58:25;10.65;;;3.55;;
75639;SDS011;64233;51.486;6.332;2023-05-07T13:00:51;3.58;;;3.08;;
75639;SDS011;64233;51.486;6.332;2023-05-07T13:03:20;5.22;;;3.70;;
75639;SDS011;64233;51.486;6.332;2023-05-07T13:06:09;4.03;;;3.15;;
75639;SDS011;64233;51.486;6.332;2023-05-07T13:08:36;7.60;;;3.50;;
75639;SDS011;64233;51.486;6.332;2023-05-07T13:11:03;4.63;;;3.05;;
75639;SDS011;64233;51.486;6.332;2023-05-07T13:13:30;6.72;;;3.58;;
75639;SDS011;64233;51.486;6.332;2023-05-07T13:15:56;6.10;;;2.92;;
75639;SDS011;64233;51.486;6.332;2023-05-07T13:18:21;3.92;;;3.35;;
75639;SDS011;64233;51.486;6.332;2023-05-07T13:20:46;4.22;;;3.55;;
75639;SDS011;64233;51.486;6.332;2023-05-07T13:23:12;4.63;;;3.50;;
75639;SDS011;64233;51.486;6.332;2023-05-07T13:25:37;6.88;;;3.88;;
75639;SDS011;64233;51.486;6.332;2023-05-07T13:28:02;5.30;;;3.73;;
75639;SDS011;64233;51.486;6.332;2023-05-07T13:30:29;4.70;;;3.47;;
75639;SDS011;64233;51.486;6.332;2023-05-07T13:32:55;9.85;;;4.05;;
75639;SDS011;64233;51.486;6.332;2023-05-07T13:35:20;8.30;;;3.80;;
75639;SDS011;64233;51.486;6.332;2023-05-07T13:37:46;5.35;;;3.55;;
75639;SDS011;64233;51.486;6.332;2023-05-07T13:40:13;5.70;;;3.35;;
75639;SDS011;64233;51.486;6.332;2023-05-07T13:42:38;5.13;;;3.83;;
75639;SDS011;64233;51.486;6.332;2023-05-07T13:45:03;7.27;;;3.60;;
75639;SDS011;64233;51.486;6.332;2023-05-07T13:47:30;6.00;;;3.40;;
75639;SDS011;64233;51.486;6.332;2023-05-07T13:49:55;6.22;;;3.20;;
75639;SDS011;64233;51.486;6.332;2023-05-07T13:52:21;6.68;;;3.97;;
75639;SDS011;64233;51.486;6.332;2023-05-07T13:54:46;5.05;;;3.55;;
75639;SDS011;64233;51.486;6.332;2023-05-07T13:57:11;5.73;;;3.77;;
75639;SDS011;64233;51.486;6.332;2023-05-07T13:59:36;5.43;;;3.33;;
75639;SDS011;64233;51.486;6.332;2023-05-07T14:02:02;4.37;;;3.70;;
75639;SDS011;64233;51.486;6.332;2023-05-07T14:04:27;8.43;;;3.90;;
75639;SDS011;64233;51.486;6.332;2023-05-07T14:06:52;7.30;;;3.60;;
75639;SDS011;64233;51.486;6.332;2023-05-07T14:09:17;8.00;;;3.43;;
75639;SDS011;64233;51.486;6.332;2023-05-07T14:11:43;12.63;;;3.67;;
75639;SDS011;64233;51.486;6.332;2023-05-07T14:14:08;5.77;;;4.07;;
75639;SDS011;64233;51.486;6.332;2023-05-07T14:16:35;3.92;;;3.53;;
75639;SDS011;64233;51.486;6.332;2023-05-07T14:19:01;5.60;;;3.25;;
75639;SDS011;64233;51.486;6.332;2023-05-07T14:21:29;5.30;;;3.20;;
75639;SDS011;64233;51.486;6.332;2023-05-07T14:23:55;3.30;;;2.92;;
75639;SDS011;64233;51.486;6.332;2023-05-07T14:26:21;7.47;;;3.85;;
75639;SDS011;64233;51.486;6.332;2023-05-07T14:28:48;7.38;;;4.18;;
75639;SDS011;64233;51.486;6.332;2023-05-07T14:31:13;5.97;;;3.00;;
75639;SDS011;64233;51.486;6.332;2023-05-07T14:33:39;6.70;;;3.58;;
75639;SDS011;64233;51.486;6.332;2023-05-07T14:36:04;5.68;;;3.63;;
75639;SDS011;64233;51.486;6.332;2023-05-07T14:38:30;3.88;;;3.35;;
75639;SDS011;64233;51.486;6.332;2023-05-07T14:40:57;5.22;;;3.55;;
75639;SDS011;64233;51.486;6.332;2023-05-07T14:43:23;3.47;;;3.10;;
75639;SDS011;64233;51.486;6.332;2023-05-07T14:45:48;4.03;;;3.27;;
75639;SDS011;64233;51.486;6.332;2023-05-07T14:48:13;4.47;;;3.58;;
75639;SDS011;64233;51.486;6.332;2023-05-07T14:50:40;6.10;;;3.85;;
75639;SDS011;64233;51.486;6.332;2023-05-07T14:53:06;5.30;;;3.33;;